Welcome to La Porte Aviation Services!

An aviation adventure awaits

Current Weather Conditions

Available data for KPPO from the past 2 hours
LA PORTE, IN
Metar
KPPO 271315Z AUTO 27003KT 10SM CLR 16/11 A3015 RMK AO2 T01620111

13:15 UTC

Wind: 270° 3kt

Visibility: 10 SM

Sky:

Temp: 16 deg C / 60.8 deg F

Dewpoint: 11 deg C / 51.8 deg F

Pressure: 30.15 inHg

Pirep (1)
IRS UA /OV AZO180030 /TM 1218 /FL085 /TP C182 /SK SKC /TB NEG /RM SMOOTH

Connect with us on Facebook!

Facebook By Weblizar Powered By Weblizar